Time;durP1;ratioP1;P1;durP2;ratioP2;P2;SDS_P1;SDS_P2;PMS_P1;PMS_P2;Temp;Humidity;BMP_temperature;BMP_pressure;BME280_temperature;BME280_humidity;BME280_pressure;Samples;Min_cycle;Max_cycle;Signal;HPM_P1;HPM_P2
2022/01/30 00:01:15;;;;;;;;;;;5.70;99.90;;;;;;5033444;28;19928;-72
2022/01/30 00:03:42;;;;;;;;;;;5.70;99.90;;;;;;5042529;28;19928;-71
2022/01/30 00:06:09;;;;;;;;;;;5.60;99.90;;;;;;5042723;28;19988;-71
2022/01/30 00:08:35;;;;;;;;;;;5.60;99.90;;;;;;5043571;28;19937;-72
2022/01/30 00:11:10;;;;;;;;;;;5.90;99.90;;;;;;5028700;28;19921;-72
2022/01/30 00:13:37;;;;;;;;;;;5.50;99.90;;;;;;5023615;28;20137;-72
2022/01/30 00:16:08;;;;;;;;;;;5.50;99.90;;;;;;5023457;28;19921;-72
2022/01/30 00:18:50;;;;;;;;;;;5.50;99.90;;;;;;5023815;28;19921;-72
2022/01/30 00:21:30;;;;;;;;;;;5.50;99.90;;;;;;5040263;28;19925;-71
2022/01/30 00:24:01;;;;;;;;;;;5.50;99.90;;;;;;5042824;28;20256;-72
2022/01/30 00:26:31;;;;;;;;;;;5.50;99.90;;;;;;5041830;28;19921;-71
2022/01/30 00:28:58;;;;;;;;;;;5.40;99.90;;;;;;5047146;28;19921;-72
2022/01/30 00:31:27;;;;;;;;;;;5.50;99.90;;;;;;5046377;28;19967;-72
2022/01/30 00:33:53;;;;;;;;;;;5.40;99.90;;;;;;5046764;28;19928;-72
2022/01/30 00:36:20;;;;;;;;;;;5.40;99.90;;;;;;5046890;28;19925;-71
2022/01/30 00:38:47;;;;;;;;;;;5.40;99.90;;;;;;5047323;28;19925;-72
2022/01/30 00:41:14;;;;;;;;;;;5.40;99.90;;;;;;5046534;28;19963;-72
2022/01/30 00:43:40;;;;;;;;;;;5.40;99.90;;;;;;5046578;28;19951;-72
2022/01/30 00:46:07;;;;;;;;;;;5.40;99.90;;;;;;5046728;28;19921;-71
2022/01/30 00:48:35;;;;;;;;;;;5.40;99.90;;;;;;5046265;28;20235;-72
2022/01/30 00:51:01;;;;;;;;;;;5.40;99.90;;;;;;5046984;28;19924;-72
2022/01/30 00:53:28;;;;;;;;;;;5.40;99.90;;;;;;5046770;28;19959;-71
2022/01/30 00:55:55;;;;;;;;;;;5.40;99.90;;;;;;5046610;28;19921;-72
2022/01/30 00:58:21;;;;;;;;;;;5.40;99.90;;;;;;5046275;28;19931;-72
2022/01/30 01:00:48;;;;;;;;;;;5.40;99.90;;;;;;5046438;28;19921;-71
2022/01/30 01:03:14;;;;;;;;;;;5.30;99.90;;;;;;5046643;28;20280;-72
2022/01/30 01:05:42;;;;;;;;;;;5.20;99.90;;;;;;5046487;28;19928;-72
2022/01/30 01:08:14;;;;;;;;;;;5.20;99.90;;;;;;5046178;28;19944;-72
2022/01/30 01:10:46;;;;;;;;;;;5.20;99.90;;;;;;5046325;28;19925;-71
2022/01/30 01:13:42;;;;;;;;;;;5.20;99.90;;;;;;5046291;28;19936;-72
2022/01/30 01:24:22;;;;;;;;;;;5.10;99.90;;;;;;5026067;28;19928;-71
2022/01/30 01:26:49;;;;;;;;;;;5.10;99.90;;;;;;5030186;28;20120;-72
2022/01/30 01:29:16;;;;;;;;;;;5.00;99.90;;;;;;5045980;28;19927;-71
2022/01/30 01:31:42;;;;;;;;;;;5.10;99.90;;;;;;5045816;28;19921;-70
2022/01/30 01:34:28;;;;;;;;;;;5.10;99.90;;;;;;5045587;28;19943;-71
2022/01/30 01:36:56;;;;;;;;;;;5.10;99.90;;;;;;5045826;28;19921;-72
2022/01/30 01:39:23;;;;;;;;;;;5.10;99.90;;;;;;5041827;28;19921;-72
2022/01/30 01:41:49;;;;;;;;;;;5.10;99.90;;;;;;5028859;28;20221;-72
2022/01/30 01:44:17;;;;;;;;;;;5.10;99.90;;;;;;5025541;28;19922;-71
2022/01/30 01:46:45;;;;;;;;;;;5.20;99.90;;;;;;5027415;28;19929;-72
2022/01/30 01:49:19;;;;;;;;;;;5.20;99.90;;;;;;5045725;28;19928;-72
2022/01/30 01:51:49;;;;;;;;;;;5.20;99.90;;;;;;5046017;28;19921;-72
2022/01/30 01:54:17;;;;;;;;;;;5.20;99.90;;;;;;5045340;28;19959;-72
2022/01/30 01:56:43;;;;;;;;;;;5.10;99.90;;;;;;5045137;28;19921;-71
2022/01/30 01:59:10;;;;;;;;;;;5.20;99.90;;;;;;5044394;28;20229;-72
2022/01/30 02:01:36;;;;;;;;;;;5.10;99.90;;;;;;5040759;28;19921;-72
2022/01/30 02:04:03;;;;;;;;;;;5.10;99.90;;;;;;5044834;28;20201;-71
2022/01/30 02:06:30;;;;;;;;;;;5.10;99.90;;;;;;5044022;28;19921;-72
2022/01/30 02:08:59;;;;;;;;;;;5.10;99.90;;;;;;5045146;28;19992;-72
2022/01/30 02:11:35;;;;;;;;;;;5.10;99.90;;;;;;5045045;28;19920;-71
2022/01/30 02:14:29;;;;;;;;;;;5.20;99.90;;;;;;5044884;28;19921;-72
2022/01/30 02:25:33;;;;;;;;;;;5.20;99.90;;;;;;5044456;28;19927;-71
2022/01/30 02:28:06;;;;;;;;;;;5.20;99.90;;;;;;5044187;28;20129;-72
2022/01/30 02:30:35;;;;;;;;;;;5.20;99.90;;;;;;5044822;28;19967;-71
2022/01/30 02:33:02;;;;;;;;;;;5.20;99.90;;;;;;5045283;28;19921;-72
2022/01/30 02:35:30;;;;;;;;;;;5.20;99.90;;;;;;5044430;28;20227;-71
2022/01/30 02:38:00;;;;;;;;;;;5.20;99.90;;;;;;5044051;28;20171;-72
2022/01/30 02:40:29;;;;;;;;;;;5.20;99.90;;;;;;5038930;28;19957;-72
2022/01/30 02:42:55;;;;;;;;;;;5.20;99.90;;;;;;5044753;28;20031;-72
2022/01/30 02:45:25;;;;;;;;;;;5.30;99.90;;;;;;5043815;28;20204;-71
2022/01/30 02:47:59;;;;;;;;;;;5.20;99.90;;;;;;5024218;28;19928;-71
2022/01/30 02:50:38;;;;;;;;;;;5.30;99.90;;;;;;5024299;28;19921;-71
2022/01/30 02:53:09;;;;;;;;;;;5.20;99.90;;;;;;5024747;28;19944;-71
2022/01/30 02:55:36;;;;;;;;;;;5.30;99.90;;;;;;5030151;28;19928;-71
2022/01/30 02:58:02;;;;;;;;;;;5.30;99.90;;;;;;5044184;28;20235;-70
2022/01/30 03:00:29;;;;;;;;;;;5.30;99.90;;;;;;5043357;28;19925;-71
2022/01/30 03:02:56;;;;;;;;;;;5.30;99.90;;;;;;5044303;28;20101;-71
2022/01/30 03:05:22;;;;;;;;;;;5.30;99.90;;;;;;5043957;28;19921;-71
2022/01/30 03:07:49;;;;;;;;;;;5.30;99.90;;;;;;5044388;28;19933;-71
2022/01/30 03:10:17;;;;;;;;;;;5.30;99.90;;;;;;5044084;28;20223;-71
2022/01/30 03:12:43;;;;;;;;;;;5.30;99.90;;;;;;5043958;28;19921;-71
2022/01/30 03:15:10;;;;;;;;;;;5.30;99.90;;;;;;5043631;28;19921;-71
2022/01/30 03:17:37;;;;;;;;;;;5.30;99.90;;;;;;5043319;28;19928;-71
2022/01/30 03:20:04;;;;;;;;;;;5.30;99.90;;;;;;5043808;28;20116;-71
2022/01/30 03:22:31;;;;;;;;;;;5.30;99.90;;;;;;5043839;28;20244;-71
2022/01/30 03:24:58;;;;;;;;;;;5.30;99.90;;;;;;5043686;28;19949;-71
2022/01/30 03:27:28;;;;;;;;;;;5.30;99.90;;;;;;5043198;28;19921;-71
2022/01/30 03:30:03;;;;;;;;;;;5.20;99.90;;;;;;5043691;28;19928;-71
2022/01/30 03:32:30;;;;;;;;;;;5.30;99.90;;;;;;5044946;22;19928;-70
2022/01/30 03:34:56;;;;;;;;;;;5.30;99.90;;;;;;5023968;28;20175;-71
2022/01/30 03:37:23;;;;;;;;;;;5.20;99.90;;;;;;5023801;28;19929;-71
2022/01/30 03:39:50;;;;;;;;;;;5.20;99.90;;;;;;5023947;28;19928;-71
2022/01/30 03:42:16;;;;;;;;;;;5.30;99.90;;;;;;5023914;28;19921;-71
2022/01/30 03:44:44;;;;;;;;;;;5.20;99.90;;;;;;5024009;28;19921;-71
2022/01/30 03:47:11;;;;;;;;;;;5.20;99.90;;;;;;5023548;28;19925;-71
2022/01/30 03:49:37;;;;;;;;;;;5.20;99.90;;;;;;5023744;28;19933;-70
2022/01/30 03:52:04;;;;;;;;;;;5.20;99.90;;;;;;5023729;28;19922;-70
2022/01/30 03:54:32;;;;;;;;;;;5.20;99.90;;;;;;5023457;28;19921;-71
2022/01/30 03:56:59;;;;;;;;;;;5.20;99.90;;;;;;5023390;28;19922;-70
2022/01/30 03:59:25;;;;;;;;;;;5.20;99.90;;;;;;5023119;28;19921;-70
2022/01/30 04:01:53;;;;;;;;;;;5.20;99.90;;;;;;5017258;28;19922;-71
2022/01/30 04:04:20;;;;;;;;;;;5.20;99.90;;;;;;5023448;28;19928;-70
2022/01/30 04:06:47;;;;;;;;;;;5.20;99.90;;;;;;5023178;28;20119;-70
2022/01/30 04:09:13;;;;;;;;;;;5.20;99.90;;;;;;5023455;28;19925;-70
2022/01/30 04:11:40;;;;;;;;;;;5.20;99.90;;;;;;5023479;28;20123;-70
2022/01/30 04:14:07;;;;;;;;;;;5.10;99.90;;;;;;5023443;28;19928;-71
2022/01/30 04:16:34;;;;;;;;;;;5.10;99.90;;;;;;5023297;28;20112;-70
2022/01/30 04:19:04;;;;;;;;;;;5.10;99.90;;;;;;5023229;28;19928;-70
2022/01/30 04:21:31;;;;;;;;;;;5.10;99.90;;;;;;5003849;28;19922;-70
2022/01/30 04:23:57;;;;;;;;;;;5.10;99.90;;;;;;5002573;28;19922;-71
2022/01/30 04:26:24;;;;;;;;;;;5.10;99.90;;;;;;5013531;28;19921;-70
2022/01/30 04:28:51;;;;;;;;;;;5.00;99.90;;;;;;5023264;28;19960;-71
2022/01/30 04:31:17;;;;;;;;;;;5.10;99.90;;;;;;5022283;28;19933;-71
2022/01/30 04:33:44;;;;;;;;;;;5.00;99.90;;;;;;5003057;28;19921;-71
2022/01/30 04:36:17;;;;;;;;;;;5.00;99.90;;;;;;5011050;28;20259;-71
2022/01/30 04:38:56;;;;;;;;;;;5.00;99.90;;;;;;5023112;28;19988;-71
2022/01/30 04:41:37;;;;;;;;;;;5.10;99.90;;;;;;5022980;28;20213;-70
2022/01/30 04:52:31;;;;;;;;;;;5.00;99.90;;;;;;5023107;28;19924;-71
2022/01/30 04:57:47;;;;;;;;;;;5.00;99.90;;;;;;5000679;28;19924;-70
2022/01/30 05:03:20;;;;;;;;;;;4.90;99.90;;;;;;4962744;29;20121;-70
2022/01/30 05:05:57;;;;;;;;;;;4.90;99.90;;;;;;5007297;28;19925;-71
2022/01/30 05:08:26;;;;;;;;;;;4.90;99.90;;;;;;5022899;28;19928;-72
2022/01/30 05:10:53;;;;;;;;;;;4.80;99.90;;;;;;5022783;28;19937;-71
2022/01/30 05:13:23;;;;;;;;;;;4.80;99.90;;;;;;5024149;28;19921;-72
2022/01/30 05:15:49;;;;;;;;;;;4.70;99.90;;;;;;5024354;28;19921;-71
2022/01/30 05:18:19;;;;;;;;;;;4.80;99.90;;;;;;5009651;28;19928;-72
2022/01/30 05:20:46;;;;;;;;;;;4.80;99.90;;;;;;5006658;28;19929;-71
2022/01/30 05:23:13;;;;;;;;;;;4.70;99.90;;;;;;5005307;28;20238;-71
2022/01/30 05:25:41;;;;;;;;;;;4.70;99.90;;;;;;5009805;28;19922;-70
2022/01/30 05:28:08;;;;;;;;;;;4.70;99.90;;;;;;5026343;28;19929;-70
2022/01/30 05:30:35;;;;;;;;;;;4.60;99.90;;;;;;5025865;28;19976;-71
2022/01/30 05:33:02;;;;;;;;;;;4.60;99.90;;;;;;5025910;28;19925;-70
2022/01/30 05:35:29;;;;;;;;;;;4.60;99.90;;;;;;5021725;28;20213;-71
2022/01/30 05:37:56;;;;;;;;;;;4.60;99.90;;;;;;5025807;28;19921;-71
2022/01/30 05:40:23;;;;;;;;;;;4.60;99.90;;;;;;5025930;28;20097;-70
2022/01/30 05:42:51;;;;;;;;;;;4.60;99.90;;;;;;5024670;28;19921;-71
2022/01/30 05:45:25;;;;;;;;;;;4.60;99.90;;;;;;5025436;28;19988;-71
2022/01/30 05:47:57;;;;;;;;;;;4.50;99.90;;;;;;5025467;28;19925;-71
2022/01/30 05:50:24;;;;;;;;;;;4.50;99.90;;;;;;5025655;28;19936;-71
2022/01/30 05:52:50;;;;;;;;;;;4.50;99.90;;;;;;5023093;28;19921;-71
2022/01/30 05:55:17;;;;;;;;;;;4.60;99.90;;;;;;5022753;28;19922;-72
2022/01/30 05:57:44;;;;;;;;;;;4.60;99.90;;;;;;5025782;28;19921;-71
2022/01/30 06:00:14;;;;;;;;;;;4.60;99.90;;;;;;5026180;28;19980;-70
2022/01/30 06:02:41;;;;;;;;;;;4.50;99.90;;;;;;5025115;28;19975;-70
2022/01/30 06:05:08;;;;;;;;;;;4.50;99.90;;;;;;5025344;28;19922;-71
2022/01/30 06:07:37;;;;;;;;;;;4.50;99.90;;;;;;5025021;28;20001;-71
2022/01/30 06:10:04;;;;;;;;;;;4.50;99.90;;;;;;5005937;28;20153;-70
2022/01/30 06:12:31;;;;;;;;;;;4.40;99.90;;;;;;5005842;28;19929;-71
2022/01/30 06:14:57;;;;;;;;;;;4.40;99.90;;;;;;5006136;28;19928;-71
2022/01/30 06:17:25;;;;;;;;;;;4.30;99.90;;;;;;5020020;28;19927;-71
2022/01/30 06:19:58;;;;;;;;;;;4.30;99.90;;;;;;5024667;28;19925;-71
2022/01/30 06:22:24;;;;;;;;;;;4.40;99.90;;;;;;5024520;28;20224;-71
2022/01/30 06:24:51;;;;;;;;;;;4.30;99.90;;;;;;5004996;28;19929;-70
2022/01/30 06:27:17;;;;;;;;;;;4.20;99.90;;;;;;5019139;28;19928;-70
2022/01/30 06:29:44;;;;;;;;;;;4.30;99.90;;;;;;5024161;28;19928;-71
2022/01/30 06:32:11;;;;;;;;;;;4.20;99.90;;;;;;5025122;28;19925;-71
2022/01/30 06:34:39;;;;;;;;;;;4.20;99.90;;;;;;5015441;28;19922;-70
2022/01/30 06:37:06;;;;;;;;;;;4.20;99.90;;;;;;5006055;28;19922;-70
2022/01/30 06:39:39;;;;;;;;;;;4.20;99.90;;;;;;5004991;28;20214;-71
2022/01/30 06:42:07;;;;;;;;;;;4.10;99.90;;;;;;5005437;28;19933;-70
2022/01/30 06:44:33;;;;;;;;;;;4.10;99.90;;;;;;5004929;28;19944;-70
2022/01/30 06:47:00;;;;;;;;;;;4.10;99.90;;;;;;5015856;28;19928;-70
2022/01/30 06:49:26;;;;;;;;;;;4.10;99.90;;;;;;5024885;28;19927;-71
2022/01/30 06:51:54;;;;;;;;;;;4.10;99.90;;;;;;5025064;28;20125;-71
2022/01/30 06:54:21;;;;;;;;;;;4.10;99.90;;;;;;5024561;28;19941;-70
2022/01/30 06:56:48;;;;;;;;;;;4.00;99.90;;;;;;5024915;28;19921;-70
2022/01/30 06:59:14;;;;;;;;;;;4.00;99.90;;;;;;5025322;28;19984;-70
2022/01/30 07:01:41;;;;;;;;;;;4.00;99.90;;;;;;5025075;28;19927;-70
2022/01/30 07:04:07;;;;;;;;;;;3.90;99.90;;;;;;5024810;28;19929;-70
2022/01/30 07:06:34;;;;;;;;;;;3.90;99.90;;;;;;5024830;28;20167;-70
2022/01/30 07:09:02;;;;;;;;;;;3.90;99.90;;;;;;5024819;28;19921;-70
2022/01/30 07:11:28;;;;;;;;;;;3.90;99.90;;;;;;5024314;28;19922;-70
2022/01/30 07:13:55;;;;;;;;;;;3.90;99.90;;;;;;5021405;28;19951;-69
2022/01/30 07:16:21;;;;;;;;;;;3.90;99.90;;;;;;5024224;28;19925;-70
2022/01/30 07:18:48;;;;;;;;;;;4.00;99.90;;;;;;5024251;28;19921;-70
2022/01/30 07:21:15;;;;;;;;;;;3.90;99.90;;;;;;5023504;28;19928;-70
2022/01/30 07:23:41;;;;;;;;;;;3.90;99.90;;;;;;5024549;28;19928;-71
2022/01/30 07:26:09;;;;;;;;;;;3.90;99.90;;;;;;5024619;28;19928;-70
2022/01/30 07:28:36;;;;;;;;;;;3.90;99.90;;;;;;5024329;28;20122;-70
2022/01/30 07:31:03;;;;;;;;;;;3.90;99.90;;;;;;5024479;28;19927;-71
2022/01/30 07:33:29;;;;;;;;;;;3.90;99.90;;;;;;5008236;28;19928;-70
2022/01/30 07:35:57;;;;;;;;;;;3.90;99.90;;;;;;5003750;28;19921;-70
2022/01/30 07:38:24;;;;;;;;;;;3.90;99.90;;;;;;5020830;28;19985;-70
2022/01/30 07:40:51;;;;;;;;;;;3.90;99.90;;;;;;5024587;28;19977;-70
2022/01/30 07:43:19;;;;;;;;;;;3.90;99.90;;;;;;5021963;28;19922;-70
2022/01/30 07:45:45;;;;;;;;;;;3.90;99.90;;;;;;5023193;28;19929;-70
2022/01/30 07:48:12;;;;;;;;;;;3.90;99.90;;;;;;5023822;28;19922;-70
2022/01/30 07:50:38;;;;;;;;;;;4.00;99.90;;;;;;5023890;28;19984;-70
2022/01/30 07:53:05;;;;;;;;;;;4.00;99.90;;;;;;5024025;28;20280;-70
2022/01/30 07:55:32;;;;;;;;;;;4.00;99.90;;;;;;5011704;28;19928;-70
2022/01/30 07:57:59;;;;;;;;;;;3.90;99.90;;;;;;5004177;28;19922;-71
2022/01/30 08:00:26;;;;;;;;;;;3.90;99.90;;;;;;5003482;28;19921;-70
2022/01/30 08:02:53;;;;;;;;;;;3.90;99.90;;;;;;5004378;28;19922;-70
2022/01/30 08:05:20;;;;;;;;;;;3.90;99.90;;;;;;5015491;28;19922;-70
2022/01/30 08:07:46;;;;;;;;;;;3.90;99.90;;;;;;5024112;28;19931;-69
2022/01/30 08:10:13;;;;;;;;;;;3.90;99.90;;;;;;5020192;28;19929;-70
2022/01/30 08:12:39;;;;;;;;;;;3.90;99.90;;;;;;5021822;28;19922;-70
2022/01/30 08:15:06;;;;;;;;;;;3.90;99.90;;;;;;5022987;28;19921;-70
2022/01/30 08:17:36;;;;;;;;;;;3.90;99.90;;;;;;5023185;28;20120;-70
2022/01/30 08:20:05;;;;;;;;;;;4.00;99.90;;;;;;5015191;28;19922;-70
2022/01/30 08:22:32;;;;;;;;;;;3.90;99.90;;;;;;5018114;28;20169;-71
2022/01/30 08:24:58;;;;;;;;;;;4.00;99.90;;;;;;5022500;28;19997;-70
2022/01/30 08:27:25;;;;;;;;;;;3.90;99.90;;;;;;5018139;28;19984;-70
2022/01/30 08:29:53;;;;;;;;;;;3.90;99.90;;;;;;5023143;28;20032;-71
2022/01/30 08:32:20;;;;;;;;;;;3.90;99.90;;;;;;5023488;28;19921;-70
2022/01/30 08:34:49;;;;;;;;;;;3.90;99.90;;;;;;5023338;28;19927;-70
2022/01/30 08:37:15;;;;;;;;;;;3.90;99.90;;;;;;5021850;28;20251;-70
2022/01/30 08:39:42;;;;;;;;;;;3.90;99.90;;;;;;5004312;28;19922;-70
2022/01/30 08:42:09;;;;;;;;;;;3.80;99.90;;;;;;5004160;28;19928;-70
2022/01/30 08:44:35;;;;;;;;;;;3.80;99.90;;;;;;5018777;28;19927;-70
2022/01/30 08:47:02;;;;;;;;;;;3.90;99.90;;;;;;5023480;28;19928;-71
2022/01/30 08:49:29;;;;;;;;;;;3.90;99.90;;;;;;5026751;28;19928;-71
2022/01/30 08:51:57;;;;;;;;;;;4.00;99.90;;;;;;5027137;28;19922;-71
2022/01/30 08:54:24;;;;;;;;;;;4.00;99.90;;;;;;5027185;28;19921;-70
2022/01/30 08:56:50;;;;;;;;;;;4.10;99.90;;;;;;5027377;28;19932;-70
2022/01/30 08:59:17;;;;;;;;;;;4.10;99.90;;;;;;5027157;28;20205;-70
2022/01/30 09:01:43;;;;;;;;;;;4.10;99.90;;;;;;5027353;28;19921;-70
2022/01/30 09:04:11;;;;;;;;;;;4.10;99.90;;;;;;5027065;28;19936;-70
2022/01/30 09:06:53;;;;;;;;;;;4.10;99.90;;;;;;5026633;28;19984;-70
2022/01/30 09:09:21;;;;;;;;;;;4.20;99.90;;;;;;5027492;28;19944;-69
2022/01/30 09:11:48;;;;;;;;;;;4.20;99.90;;;;;;5026941;28;19925;-70
2022/01/30 09:14:15;;;;;;;;;;;4.20;99.90;;;;;;5010775;28;19980;-71
2022/01/30 09:16:41;;;;;;;;;;;4.20;99.90;;;;;;5006902;28;20094;-70
2022/01/30 09:19:08;;;;;;;;;;;4.20;99.90;;;;;;5026647;28;19921;-70
2022/01/30 09:21:35;;;;;;;;;;;4.30;99.90;;;;;;5026233;28;20235;-70
2022/01/30 09:24:01;;;;;;;;;;;4.30;99.90;;;;;;5021411;28;19922;-70
2022/01/30 09:26:29;;;;;;;;;;;4.40;99.90;;;;;;5025709;28;20288;-70
2022/01/30 09:28:56;;;;;;;;;;;4.40;99.90;;;;;;5026056;28;19921;-70
2022/01/30 09:33:51;;;;;;;;;;;4.50;99.90;;;;;;5065132;28;20191;-71
2022/01/30 09:36:17;;;;;;;;;;;4.50;99.90;;;;;;5065400;28;19961;-72
2022/01/30 09:38:44;;;;;;;;;;;4.50;99.90;;;;;;5066037;28;20108;-72
2022/01/30 09:41:11;;;;;;;;;;;4.50;99.90;;;;;;5065561;28;19920;-72
2022/01/30 09:43:39;;;;;;;;;;;4.50;99.90;;;;;;5084995;28;19920;-72
2022/01/30 09:46:05;;;;;;;;;;;4.60;99.90;;;;;;5082727;28;19925;-72
2022/01/30 09:48:35;;;;;;;;;;;4.50;99.90;;;;;;5085624;28;19920;-71
2022/01/30 09:51:03;;;;;;;;;;;4.60;99.90;;;;;;5083708;28;20216;-72
2022/01/30 09:53:29;;;;;;;;;;;4.50;99.90;;;;;;5085097;28;20204;-72
2022/01/30 09:55:56;;;;;;;;;;;4.60;99.90;;;;;;5076264;28;19924;-71
2022/01/30 09:58:22;;;;;;;;;;;4.60;99.90;;;;;;5085124;28;19927;-72
2022/01/30 10:00:50;;;;;;;;;;;4.60;99.90;;;;;;5084286;28;19920;-72
2022/01/30 10:03:20;;;;;;;;;;;4.70;99.90;;;;;;5085150;28;19927;-72
2022/01/30 10:06:00;;;;;;;;;;;4.70;99.90;;;;;;5083728;28;20150;-72
2022/01/30 10:08:27;;;;;;;;;;;4.60;99.90;;;;;;5085078;28;19920;-72
2022/01/30 10:10:59;;;;;;;;;;;4.60;99.90;;;;;;5085269;28;19921;-73
2022/01/30 10:13:30;;;;;;;;;;;4.60;99.90;;;;;;5085101;28;19921;-72
2022/01/30 10:16:04;;;;;;;;;;;4.60;99.90;;;;;;5082499;28;19921;-71
2022/01/30 10:18:32;;;;;;;;;;;4.60;99.90;;;;;;5080936;28;20265;-72
2022/01/30 10:20:58;;;;;;;;;;;4.50;99.90;;;;;;5085166;28;20246;-71
2022/01/30 10:23:32;;;;;;;;;;;4.50;99.90;;;;;;5082734;28;19928;-71
2022/01/30 10:26:01;;;;;;;;;;;4.40;99.90;;;;;;5083865;28;19927;-72
2022/01/30 10:28:28;;;;;;;;;;;4.40;99.90;;;;;;5065093;28;19985;-72
2022/01/30 10:30:56;;;;;;;;;;;4.40;99.90;;;;;;5065263;28;19984;-72
2022/01/30 10:33:37;;;;;;;;;;;4.40;99.90;;;;;;5064490;28;20223;-72
2022/01/30 10:36:04;;;;;;;;;;;4.40;99.90;;;;;;5069771;28;19924;-72
2022/01/30 10:38:35;;;;;;;;;;;4.40;99.90;;;;;;5080332;28;19927;-72
2022/01/30 10:41:10;;;;;;;;;;;4.40;99.90;;;;;;5084342;28;19920;-72
2022/01/30 10:43:47;;;;;;;;;;;4.40;99.90;;;;;;5083185;28;19921;-72
2022/01/30 10:46:18;;;;;;;;;;;4.40;99.90;;;;;;5083807;28;19927;-76
2022/01/30 10:48:51;;;;;;;;;;;4.40;99.90;;;;;;5084781;28;19920;-71
2022/01/30 10:51:18;;;;;;;;;;;4.50;99.90;;;;;;5084464;28;20119;-71
2022/01/30 10:53:46;;;;;;;;;;;4.50;99.90;;;;;;5083415;28;19920;-71
2022/01/30 10:56:18;;;;;;;;;;;4.60;99.90;;;;;;5084752;28;19925;-71
2022/01/30 10:59:04;;;;;;;;;;;4.60;99.90;;;;;;5084648;28;19965;-72
2022/01/30 11:01:30;;;;;;;;;;;4.60;99.90;;;;;;5084122;28;19921;-71
2022/01/30 11:04:00;;;;;;;;;;;4.70;99.90;;;;;;5083494;28;19920;-72
2022/01/30 11:06:28;;;;;;;;;;;4.60;99.90;;;;;;5081555;28;19926;-71
2022/01/30 11:08:55;;;;;;;;;;;4.60;99.90;;;;;;5068384;28;19927;-71
2022/01/30 11:11:33;;;;;;;;;;;4.50;99.90;;;;;;5061508;28;19944;-71
2022/01/30 11:16:59;;;;;;;;;;;4.60;99.90;;;;;;5077892;28;19966;-70
2022/01/30 11:19:27;;;;;;;;;;;4.60;99.90;;;;;;5084179;28;19957;-71
2022/01/30 11:21:55;;;;;;;;;;;4.60;99.90;;;;;;5083068;28;19980;-69
2022/01/30 11:24:24;;;;;;;;;;;4.60;99.90;;;;;;5077123;28;19925;-71
2022/01/30 11:26:51;;;;;;;;;;;4.50;99.90;;;;;;5068218;28;20183;-70
2022/01/30 11:29:20;;;;;;;;;;;4.50;99.90;;;;;;5060512;28;19920;-72
2022/01/30 11:31:47;;;;;;;;;;;4.60;99.90;;;;;;5065591;28;20196;-70
2022/01/30 11:34:14;;;;;;;;;;;4.70;99.90;;;;;;5084253;28;19928;-71
2022/01/30 11:36:42;;;;;;;;;;;4.70;99.90;;;;;;5083414;28;19932;-71
2022/01/30 11:39:13;;;;;;;;;;;4.70;99.90;;;;;;5071728;28;19982;-71
2022/01/30 11:41:40;;;;;;;;;;;4.70;99.90;;;;;;5083289;28;19920;-72
2022/01/30 11:44:29;;;;;;;;;;;4.70;99.90;;;;;;5070704;28;19920;-71
2022/01/30 11:47:15;;;;;;;;;;;4.60;99.90;;;;;;5071229;28;19927;-70
2022/01/30 11:49:43;;;;;;;;;;;4.60;99.90;;;;;;5078429;28;20207;-70
2022/01/30 11:52:12;;;;;;;;;;;4.60;99.90;;;;;;5076061;28;19928;-71
2022/01/30 11:54:39;;;;;;;;;;;4.60;99.90;;;;;;5077815;28;19955;-71
2022/01/30 11:57:27;;;;;;;;;;;4.60;99.90;;;;;;5083341;28;19927;-71
2022/01/30 11:59:55;;;;;;;;;;;4.60;99.90;;;;;;5083322;28;19987;-71
2022/01/30 12:02:23;;;;;;;;;;;4.60;99.90;;;;;;5079840;28;20360;-71
2022/01/30 12:04:54;;;;;;;;;;;4.50;99.90;;;;;;5082633;28;19986;-70
2022/01/30 12:07:38;;;;;;;;;;;4.50;99.90;;;;;;5083469;28;19920;-71
2022/01/30 12:10:24;;;;;;;;;;;4.40;99.90;;;;;;5075222;28;19933;-71
2022/01/30 12:12:51;;;;;;;;;;;4.50;99.90;;;;;;5071549;28;19992;-71
2022/01/30 12:15:38;;;;;;;;;;;4.50;99.90;;;;;;5073105;28;19952;-71
2022/01/30 12:18:05;;;;;;;;;;;4.60;99.90;;;;;;5076761;28;20246;-71
2022/01/30 12:20:59;;;;;;;;;;;4.50;99.90;;;;;;5077657;28;19927;-71
2022/01/30 12:23:26;;;;;;;;;;;4.60;99.90;;;;;;5066111;28;19943;-71
2022/01/30 12:25:56;;;;;;;;;;;4.60;99.90;;;;;;5076461;28;20022;-71
2022/01/30 12:28:37;;;;;;;;;;;4.70;99.90;;;;;;5086029;28;19921;-71
2022/01/30 12:31:23;;;;;;;;;;;4.70;99.90;;;;;;5087058;28;19932;-71
2022/01/30 12:33:57;;;;;;;;;;;4.80;99.90;;;;;;5084043;28;19920;-71
2022/01/30 12:36:24;;;;;;;;;;;4.80;99.90;;;;;;5085663;28;19920;-73
2022/01/30 12:39:08;;;;;;;;;;;4.80;99.90;;;;;;5080943;28;19920;-73
2022/01/30 12:41:36;;;;;;;;;;;4.80;99.90;;;;;;5078559;28;19921;-73
2022/01/30 12:44:03;;;;;;;;;;;4.70;99.90;;;;;;5066462;28;19927;-73
2022/01/30 12:46:32;;;;;;;;;;;4.70;99.90;;;;;;5067285;28;19924;-70
2022/01/30 12:49:03;;;;;;;;;;;4.80;99.90;;;;;;5067016;28;20223;-71
2022/01/30 12:51:30;;;;;;;;;;;4.80;99.90;;;;;;5067002;28;19927;-70
2022/01/30 12:53:58;;;;;;;;;;;4.90;99.90;;;;;;5069545;28;19940;-69
2022/01/30 12:56:25;;;;;;;;;;;4.90;99.90;;;;;;5066574;28;19921;-72
2022/01/30 12:58:55;;;;;;;;;;;4.90;99.90;;;;;;5066653;28;19987;-70
2022/01/30 13:01:24;;;;;;;;;;;4.80;99.90;;;;;;5067025;28;19921;-71
2022/01/30 13:04:02;;;;;;;;;;;4.80;99.90;;;;;;5080902;28;20208;-70
2022/01/30 13:06:32;;;;;;;;;;;4.70;99.90;;;;;;5071286;28;19921;-71
2022/01/30 13:08:59;;;;;;;;;;;4.70;99.90;;;;;;5071182;28;19942;-70
2022/01/30 13:11:26;;;;;;;;;;;4.60;99.90;;;;;;5086875;28;19920;-71
2022/01/30 13:13:55;;;;;;;;;;;4.70;99.90;;;;;;5079176;28;19921;-71
2022/01/30 13:16:23;;;;;;;;;;;4.70;99.90;;;;;;5067021;28;20257;-71
2022/01/30 13:18:49;;;;;;;;;;;4.70;99.90;;;;;;5066645;28;19920;-70
2022/01/30 13:21:22;;;;;;;;;;;4.70;99.90;;;;;;5071281;28;19921;-70
2022/01/30 13:23:49;;;;;;;;;;;4.70;99.90;;;;;;5086046;28;19925;-71
2022/01/30 13:26:27;;;;;;;;;;;4.70;99.90;;;;;;5066023;28;19927;-71
2022/01/30 13:28:54;;;;;;;;;;;4.70;99.90;;;;;;5066273;28;19921;-71
2022/01/30 13:31:20;;;;;;;;;;;4.80;99.90;;;;;;5070594;28;19920;-71
2022/01/30 13:34:05;;;;;;;;;;;4.70;99.90;;;;;;5085755;28;19927;-70
2022/01/30 13:36:34;;;;;;;;;;;4.80;99.90;;;;;;5085699;28;19921;-71
2022/01/30 13:39:05;;;;;;;;;;;4.80;99.90;;;;;;5085621;28;20158;-71
2022/01/30 13:41:35;;;;;;;;;;;4.70;99.90;;;;;;5080103;28;20212;-71
2022/01/30 13:44:10;;;;;;;;;;;4.70;99.90;;;;;;5084810;28;19966;-71
2022/01/30 13:46:58;;;;;;;;;;;4.70;99.90;;;;;;5083317;28;20216;-71
2022/01/30 13:49:24;;;;;;;;;;;4.90;99.90;;;;;;5079653;28;19948;-71
2022/01/30 13:52:04;;;;;;;;;;;5.20;99.90;;;;;;5082974;28;19921;-69
2022/01/30 13:54:31;;;;;;;;;;;5.30;99.90;;;;;;5078435;28;19921;-70
2022/01/30 13:57:01;;;;;;;;;;;5.30;99.90;;;;;;5084534;28;19927;-71
2022/01/30 13:59:28;;;;;;;;;;;5.20;99.90;;;;;;5084855;28;19996;-71
2022/01/30 14:01:56;;;;;;;;;;;5.10;99.90;;;;;;5083240;28;19956;-71
2022/01/30 14:04:23;;;;;;;;;;;5.30;99.90;;;;;;5083148;28;19921;-71
2022/01/30 14:06:52;;;;;;;;;;;5.50;99.90;;;;;;5084340;28;19966;-71
2022/01/30 14:09:25;;;;;;;;;;;5.60;99.90;;;;;;5084027;28;19920;-71
2022/01/30 14:12:02;;;;;;;;;;;5.60;99.90;;;;;;5084516;28;19959;-71
2022/01/30 14:14:29;;;;;;;;;;;5.70;99.90;;;;;;5081315;28;20212;-70
2022/01/30 14:17:00;;;;;;;;;;;5.70;99.90;;;;;;5082301;28;19958;-71
2022/01/30 14:19:29;;;;;;;;;;;5.50;99.90;;;;;;5074265;28;19927;-71
2022/01/30 14:21:57;;;;;;;;;;;5.40;99.90;;;;;;5068822;28;19921;-71
2022/01/30 14:24:27;;;;;;;;;;;5.30;99.90;;;;;;5072254;28;19977;-71
2022/01/30 14:27:06;;;;;;;;;;;5.30;99.90;;;;;;5079381;28;19928;-72
2022/01/30 14:29:33;;;;;;;;;;;5.30;99.90;;;;;;5072122;28;19927;-71
2022/01/30 14:32:01;;;;;;;;;;;5.30;99.90;;;;;;5076504;28;19979;-71
2022/01/30 14:34:28;;;;;;;;;;;5.30;99.90;;;;;;5069630;28;20220;-70
2022/01/30 14:36:59;;;;;;;;;;;5.30;99.90;;;;;;5070764;28;20104;-73
2022/01/30 14:39:27;;;;;;;;;;;5.20;99.90;;;;;;5078791;28;19920;-70
2022/01/30 14:41:53;;;;;;;;;;;5.10;99.90;;;;;;5068597;28;19921;-71
2022/01/30 14:44:20;;;;;;;;;;;5.10;99.90;;;;;;5065017;28;19927;-69
2022/01/30 14:46:47;;;;;;;;;;;5.00;99.90;;;;;;5077390;28;20045;-71
2022/01/30 14:49:13;;;;;;;;;;;5.00;99.90;;;;;;5084521;28;19927;-69
2022/01/30 14:51:40;;;;;;;;;;;5.00;99.90;;;;;;5071036;28;19935;-70
2022/01/30 14:54:07;;;;;;;;;;;5.10;99.90;;;;;;5067012;28;20212;-70
2022/01/30 14:56:35;;;;;;;;;;;5.00;99.90;;;;;;5074312;28;20230;-71
2022/01/30 14:59:01;;;;;;;;;;;4.90;99.90;;;;;;5082575;28;19927;-71
2022/01/30 15:01:29;;;;;;;;;;;4.90;99.90;;;;;;5074555;28;19920;-72
2022/01/30 15:03:55;;;;;;;;;;;4.90;99.90;;;;;;5084418;28;19928;-72
2022/01/30 15:06:22;;;;;;;;;;;4.90;99.90;;;;;;5084155;28;19926;-72
2022/01/30 15:08:49;;;;;;;;;;;4.90;99.90;;;;;;5084004;28;19955;-71
2022/01/30 15:11:15;;;;;;;;;;;5.50;99.90;;;;;;5084320;28;19942;-72
2022/01/30 15:13:45;;;;;;;;;;;4.80;99.90;;;;;;5073174;28;19927;-72
2022/01/30 15:16:20;;;;;;;;;;;4.70;99.90;;;;;;5075178;28;19958;-72
2022/01/30 15:18:46;;;;;;;;;;;4.70;99.90;;;;;;5083926;28;19948;-71